createdAt,value
2023-05-04T00:02:15.003Z,102324.88
2023-05-04T00:07:19.108Z,102327.34
2023-05-04T00:12:22.172Z,102318.78
2023-05-04T00:17:23.867Z,102303.41
2023-05-04T00:22:25.714Z,102310.91
2023-05-04T00:27:27.343Z,102304.81
2023-05-04T00:32:29.108Z,102297.00
2023-05-04T00:37:30.755Z,102303.41
2023-05-04T00:42:32.411Z,102306.81
2023-05-04T00:47:34.189Z,102298.72
2023-05-04T00:52:37.517Z,102293.75
2023-05-04T00:57:39.593Z,102302.81
2023-05-04T01:02:42.159Z,102289.41
2023-05-04T01:08:13.481Z,102281.06
2023-05-04T01:13:16.692Z,102272.16
2023-05-04T01:18:19.020Z,102260.19
2023-05-04T01:23:22.563Z,102246.09
2023-05-04T01:28:36.734Z,102234.19
2023-05-04T01:33:39.153Z,102246.31
2023-05-04T01:38:42.169Z,102235.03
2023-05-04T01:43:43.879Z,102235.06
2023-05-04T01:48:45.676Z,102235.88
2023-05-04T01:53:47.287Z,102237.25
2023-05-04T01:58:50.064Z,102236.81
2023-05-04T02:03:51.898Z,102228.63
2023-05-04T02:08:53.889Z,102223.88
2023-05-04T02:13:55.574Z,102229.06
2023-05-04T02:18:57.253Z,102217.03
2023-05-04T02:23:59.331Z,102202.63
2023-05-04T02:29:02.455Z,102212.84
2023-05-04T02:34:04.047Z,102213.34
2023-05-04T02:39:05.669Z,102195.13
2023-05-04T02:44:08.833Z,102185.63
2023-05-04T02:49:10.477Z,102181.41
2023-05-04T02:54:12.344Z,102189.44
2023-05-04T02:59:14.730Z,102179.53
2023-05-04T03:04:16.528Z,102181.88
2023-05-04T03:09:18.422Z,102180.47
2023-05-04T03:14:21.473Z,102181.47
2023-05-04T03:19:23.352Z,102180.72
2023-05-04T03:24:25.509Z,102168.81
2023-05-04T03:29:27.375Z,102181.00
2023-05-04T03:34:30.325Z,102175.66
2023-05-04T03:39:36.431Z,102171.53
2023-05-04T03:44:38.098Z,102159.66
2023-05-04T03:49:39.777Z,102154.66
2023-05-04T03:54:41.369Z,102145.50
2023-05-04T03:59:43.551Z,102140.75
2023-05-04T04:04:45.439Z,102143.00
2023-05-04T04:09:47.250Z,102130.84
2023-05-04T04:14:51.006Z,102133.59
2023-05-04T04:19:52.573Z,102129.34
2023-05-04T04:24:54.211Z,102127.50
2023-05-04T04:29:55.962Z,102130.84
2023-05-04T04:34:57.681Z,102126.97
2023-05-04T04:39:59.377Z,102128.44
2023-05-04T04:45:01.136Z,102120.16
2023-05-04T04:50:05.640Z,102131.50
2023-05-04T04:55:08.157Z,102112.63
2023-05-04T05:00:10.569Z,102116.41
2023-05-04T05:05:13.031Z,102117.28
2023-05-04T05:10:14.915Z,102111.66
2023-05-04T05:15:17.067Z,102114.91
2023-05-04T05:20:18.798Z,102110.03
2023-05-04T05:25:21.512Z,102111.38
2023-05-04T05:30:23.280Z,102119.94
2023-05-04T05:35:24.880Z,102106.03
2023-05-04T05:40:26.537Z,102109.91
2023-05-04T05:45:28.364Z,102103.53
2023-05-04T05:50:30.052Z,102102.69
2023-05-04T05:55:31.716Z,102103.47
2023-05-04T06:00:33.313Z,102094.00
2023-05-04T06:05:36.829Z,102101.06
2023-05-04T06:10:38.486Z,102093.56
2023-05-04T06:15:40.112Z,102090.41
2023-05-04T06:20:41.724Z,102086.28
2023-05-04T06:25:43.497Z,102093.41
2023-05-04T06:30:45.279Z,102083.06
2023-05-04T06:35:47.103Z,102069.22
2023-05-04T06:40:48.805Z,102075.91
2023-05-04T06:45:51.905Z,102069.72
2023-05-04T06:50:53.845Z,102067.84
2023-05-04T06:55:55.461Z,102069.31
2023-05-04T07:00:57.207Z,102058.88
2023-05-04T07:05:58.837Z,102058.59
2023-05-04T07:11:00.698Z,102051.63
2023-05-04T07:16:02.305Z,102053.25
2023-05-04T07:21:21.906Z,102047.13
2023-05-04T07:26:26.008Z,102045.28
2023-05-04T07:31:29.499Z,102045.81
2023-05-04T07:36:35.318Z,102027.25
2023-05-04T07:41:37.150Z,102024.88
2023-05-04T07:46:39.073Z,102019.63
2023-05-04T07:51:40.758Z,102014.03
2023-05-04T07:56:42.491Z,102000.84
2023-05-04T08:01:44.756Z,102007.78
2023-05-04T08:06:46.541Z,101990.63
2023-05-04T08:11:49.047Z,101987.88
2023-05-04T08:16:53.786Z,101983.91
2023-05-04T08:21:55.545Z,101979.50
2023-05-04T08:27:07.038Z,101972.63
2023-05-04T08:32:09.904Z,101971.56
2023-05-04T08:37:11.749Z,101968.50
2023-05-04T08:42:13.526Z,101958.47
2023-05-04T08:47:15.392Z,101963.94
2023-05-04T08:52:17.595Z,101951.91
2023-05-04T08:57:22.105Z,101948.25
2023-05-04T09:02:24.791Z,101943.25
2023-05-04T09:07:26.917Z,101947.03
2023-05-04T09:12:28.744Z,101938.16
2023-05-04T09:17:30.524Z,101940.38
2023-05-04T09:22:32.542Z,101934.19
2023-05-04T09:27:34.202Z,101926.72
2023-05-04T09:32:46.596Z,101921.59
2023-05-04T09:37:48.941Z,101913.28
2023-05-04T09:42:57.003Z,101913.59
2023-05-04T09:47:58.849Z,101911.28
2023-05-04T09:53:00.988Z,101912.25
2023-05-04T09:58:03.031Z,101906.81
2023-05-04T10:03:06.575Z,101894.34
2023-05-04T10:08:08.778Z,101886.16
2023-05-04T10:13:10.533Z,101885.53
2023-05-04T10:18:43.396Z,101869.56
2023-05-04T10:24:21.996Z,101844.09
2023-05-04T10:29:29.559Z,101849.06
2023-05-04T10:34:33.052Z,101841.47
2023-05-04T10:39:36.207Z,101840.84
2023-05-04T10:44:56.812Z,101826.00
2023-05-04T10:50:09.837Z,101816.38
2023-05-04T10:55:11.731Z,101808.94
2023-05-04T11:00:15.816Z,101807.00
2023-05-04T11:05:21.546Z,101796.66
2023-05-04T11:10:25.235Z,101780.22
2023-05-04T11:15:26.998Z,101771.25
2023-05-04T11:20:28.647Z,101767.28
2023-05-04T11:25:31.211Z,101756.22
2023-05-04T11:30:34.642Z,101747.59
2023-05-04T11:35:36.657Z,101749.59
2023-05-04T11:40:41.141Z,101740.19
2023-05-04T11:45:43.416Z,101719.03
2023-05-04T11:50:47.214Z,101717.94
2023-05-04T11:55:50.136Z,101722.25
2023-05-04T12:00:56.771Z,101711.31
2023-05-04T12:05:59.348Z,101704.22
2023-05-04T12:11:13.479Z,101688.75
2023-05-04T12:16:20.215Z,101680.34
2023-05-04T12:21:25.079Z,101686.09
2023-05-04T12:26:27.605Z,101666.78
2023-05-04T12:31:30.486Z,101664.97
2023-05-04T12:36:32.161Z,101656.34
2023-05-04T12:41:34.048Z,101644.75
2023-05-04T12:46:35.832Z,101627.44
2023-05-04T12:51:37.468Z,101624.03
2023-05-04T12:56:39.828Z,101616.34
2023-05-04T13:01:41.789Z,101607.56
2023-05-04T13:06:44.625Z,101605.81
2023-05-04T13:11:47.568Z,101587.06
2023-05-04T13:16:51.038Z,101570.19
2023-05-04T13:21:54.270Z,101560.84
2023-05-04T13:26:56.263Z,101556.84
2023-05-04T13:31:59.400Z,101558.09
2023-05-04T13:37:01.274Z,101556.44
2023-05-04T13:42:03.987Z,101528.31
2023-05-04T13:47:05.676Z,101528.47
2023-05-04T13:52:07.554Z,101508.31
2023-05-04T13:57:09.174Z,101497.38
2023-05-04T14:02:10.858Z,101475.94
2023-05-04T14:07:12.513Z,101475.63
2023-05-04T14:12:15.726Z,101467.84
2023-05-04T14:17:17.619Z,101469.28
2023-05-04T14:22:19.639Z,101468.69
2023-05-04T14:27:24.012Z,101453.91
2023-05-04T14:32:25.806Z,101438.84
2023-05-04T14:37:27.492Z,101429.63
2023-05-04T14:42:29.140Z,101436.69
2023-05-04T14:47:30.975Z,101420.22
2023-05-04T14:52:32.794Z,101425.25
2023-05-04T14:57:34.486Z,101424.44
2023-05-04T15:02:36.228Z,101417.19
2023-05-04T15:07:38.556Z,101412.44
2023-05-04T15:12:40.388Z,101403.44
2023-05-04T15:17:42.171Z,101398.53
2023-05-04T15:22:53.983Z,101399.75
2023-05-04T15:27:55.953Z,101408.53
2023-05-04T15:32:57.841Z,101396.75
2023-05-04T15:38:00.182Z,101400.59
2023-05-04T15:43:01.887Z,101386.59
2023-05-04T15:48:03.746Z,101375.84
2023-05-04T15:53:05.384Z,101373.72
2023-05-04T15:58:07.790Z,101362.47
2023-05-04T16:03:09.561Z,101348.81
2023-05-04T16:08:11.606Z,101349.53
2023-05-04T16:13:13.453Z,101345.50
2023-05-04T16:18:15.342Z,101341.00
2023-05-04T16:23:17.873Z,101339.66
2023-05-04T16:28:20.134Z,101340.16
2023-05-04T16:33:22.129Z,101331.13
2023-05-04T16:38:23.981Z,101344.16
2023-05-04T16:43:25.851Z,101341.97
2023-05-04T16:48:27.825Z,101334.66
2023-05-04T16:53:29.542Z,101322.09
2023-05-04T16:58:31.400Z,101323.09
2023-05-04T17:03:33.104Z,101315.13
2023-05-04T17:08:34.987Z,101328.28
2023-05-04T17:13:36.968Z,101328.47
2023-05-04T17:18:38.717Z,101327.38
2023-05-04T17:23:41.613Z,101328.13
2023-05-04T17:28:43.415Z,101328.22
2023-05-04T17:33:45.761Z,101328.53
2023-05-04T17:38:47.457Z,101324.84
2023-05-04T17:43:50.275Z,101329.16
2023-05-04T17:48:53.205Z,101328.25
2023-05-04T17:53:54.908Z,101336.44
2023-05-04T17:58:56.577Z,101328.13
2023-05-04T18:03:58.622Z,101322.41
2023-05-04T18:09:01.477Z,101323.97
2023-05-04T18:14:03.687Z,101324.84
2023-05-04T18:19:06.632Z,101332.22
2023-05-04T18:24:08.538Z,101328.28
2023-05-04T18:29:19.002Z,101330.97
2023-05-04T18:34:22.060Z,101336.47
2023-05-04T18:39:23.805Z,101340.63
2023-05-04T18:44:25.505Z,101341.13
2023-05-04T18:49:27.459Z,101326.84
2023-05-04T18:54:32.715Z,101335.50
2023-05-04T18:59:35.036Z,101326.75
2023-05-04T19:04:37.119Z,101336.25
2023-05-04T19:09:38.844Z,101336.16
2023-05-04T19:14:40.737Z,101334.50
2023-05-04T19:19:42.433Z,101333.09
2023-05-04T19:24:44.215Z,101336.56
2023-05-04T19:29:46.667Z,101348.44
2023-05-04T19:34:48.467Z,101350.84
2023-05-04T19:39:53.320Z,101345.75
2023-05-04T19:44:54.900Z,101336.50
2023-05-04T19:49:56.652Z,101339.75
2023-05-04T19:54:58.384Z,101340.00
2023-05-04T20:00:02.067Z,101329.97
2023-05-04T20:05:13.771Z,101332.13
2023-05-04T20:10:15.648Z,101333.00
2023-05-04T20:15:17.633Z,101340.28
2023-05-04T20:20:20.637Z,101343.31
2023-05-04T20:25:22.903Z,101334.75
2023-05-04T20:30:28.090Z,101333.47
2023-05-04T20:35:29.859Z,101339.50
2023-05-04T20:40:32.147Z,101330.06
2023-05-04T20:45:34.306Z,101327.50
2023-05-04T20:50:36.029Z,101319.59
2023-05-04T20:55:37.712Z,101316.13
2023-05-04T21:00:40.132Z,101313.16
2023-05-04T21:05:41.939Z,101307.38
2023-05-04T21:10:43.541Z,101303.97
2023-05-04T21:15:45.304Z,101300.13
2023-05-04T21:20:47.308Z,101297.75
2023-05-04T21:25:48.949Z,101290.88
2023-05-04T21:30:53.607Z,101291.97
2023-05-04T21:35:55.297Z,101286.41
2023-05-04T21:40:56.995Z,101288.34
2023-05-04T21:45:58.579Z,101281.69
2023-05-04T21:51:00.731Z,101276.56
2023-05-04T21:56:09.532Z,101280.84
2023-05-04T22:01:15.782Z,101273.38
2023-05-04T22:06:17.526Z,101269.50
2023-05-04T22:11:19.170Z,101265.25
2023-05-04T22:16:22.117Z,101263.72
2023-05-04T22:21:23.911Z,101255.59
2023-05-04T22:26:25.542Z,101268.66
2023-05-04T22:31:27.283Z,101261.81
2023-05-04T22:36:28.969Z,101265.88
2023-05-04T22:41:31.933Z,101275.47
2023-05-04T22:46:33.577Z,101315.81
2023-05-04T22:51:35.492Z,101298.28
2023-05-04T22:56:37.116Z,101309.00
2023-05-04T23:01:43.217Z,101300.44
2023-05-04T23:06:45.259Z,101303.44
2023-05-04T23:11:47.555Z,101309.00
2023-05-04T23:16:49.226Z,101309.19
2023-05-04T23:21:51.886Z,101310.06
2023-05-04T23:26:53.573Z,101314.97
2023-05-04T23:31:55.275Z,101318.56
2023-05-04T23:36:57.146Z,101298.69
2023-05-04T23:41:58.834Z,101314.22
2023-05-04T23:47:00.545Z,101324.69
2023-05-04T23:52:03.104Z,101329.84
2023-05-04T23:57:07.737Z,101337.09
